Time;durP1;ratioP1;P1;durP2;ratioP2;P2;SDS_P1;SDS_P2;PMS_P1;PMS_P2;Temp;Humidity;BMP_temperature;BMP_pressure;BME280_temperature;BME280_humidity;BME280_pressure;Samples;Min_cycle;Max_cycle;Signal;HPM_P1;HPM_P2
2024/01/04 00:00:29;;;;;;;6.40;1.10;;;7.40;99.90;;;;;;5010072;28;20250;-47
2024/01/04 00:02:55;;;;;;;3.28;1.00;;;7.40;99.90;;;;;;5009781;28;21061;-44
2024/01/04 00:05:21;;;;;;;5.55;1.05;;;7.40;99.90;;;;;;5010088;28;20203;-44
2024/01/04 00:07:47;;;;;;;4.15;1.00;;;7.40;99.90;;;;;;4992608;28;20192;-48
2024/01/04 00:10:14;;;;;;;8.65;1.10;;;7.40;99.90;;;;;;5009299;28;20267;-44
2024/01/04 00:12:41;;;;;;;5.32;0.95;;;7.30;99.90;;;;;;4976351;28;20232;-47
2024/01/04 00:15:07;;;;;;;5.22;1.05;;;7.30;99.90;;;;;;5010045;28;20185;-46
2024/01/04 00:17:33;;;;;;;3.40;0.98;;;7.20;99.90;;;;;;5009788;28;20243;-46
2024/01/04 00:20:00;;;;;;;3.45;0.90;;;7.30;99.90;;;;;;5009974;28;20188;-46
2024/01/04 00:22:26;;;;;;;2.53;1.02;;;7.20;99.90;;;;;;5009354;28;20620;-44
2024/01/04 00:24:52;;;;;;;4.97;1.40;;;7.30;99.90;;;;;;4992091;28;20193;-45
2024/01/04 00:27:18;;;;;;;9.13;1.15;;;7.20;99.90;;;;;;4992058;28;20664;-41
2024/01/04 00:29:44;;;;;;;5.47;1.20;;;7.20;99.90;;;;;;4991607;28;20194;-42
2024/01/04 00:32:10;;;;;;;2.05;1.00;;;7.20;99.90;;;;;;4975352;28;20189;-43
2024/01/04 00:34:36;;;;;;;2.33;1.00;;;7.20;99.90;;;;;;4992024;28;20588;-42
2024/01/04 00:37:05;;;;;;;5.28;1.08;;;7.20;99.90;;;;;;5009528;28;20227;-49
2024/01/04 00:39:31;;;;;;;4.50;0.93;;;7.20;99.90;;;;;;5009796;28;20188;-46
2024/01/04 00:42:02;;;;;;;3.55;0.98;;;7.20;99.90;;;;;;5007677;28;20261;-45
2024/01/04 00:44:28;;;;;;;2.40;1.02;;;7.20;99.90;;;;;;5008934;28;20200;-41
2024/01/04 00:46:54;;;;;;;3.72;1.20;;;7.20;99.90;;;;;;5009861;28;20280;-44
2024/01/04 00:49:20;;;;;;;3.58;1.00;;;7.10;99.90;;;;;;4975153;28;20268;-48
2024/01/04 00:51:46;;;;;;;1.67;0.90;;;7.10;99.90;;;;;;4990866;28;20204;-48
2024/01/04 00:54:13;;;;;;;6.18;1.30;;;7.10;99.90;;;;;;5009259;28;20303;-41
2024/01/04 00:56:39;;;;;;;5.45;0.95;;;7.10;99.90;;;;;;4991887;28;20196;-47
2024/01/04 00:59:05;;;;;;;3.13;0.98;;;7.10;99.90;;;;;;5008115;28;20184;-39
2024/01/04 01:01:34;;;;;;;2.60;1.10;;;7.00;99.90;;;;;;4991158;28;20216;-45
2024/01/04 01:04:00;;;;;;;2.30;1.10;;;7.00;99.90;;;;;;4991780;28;20286;-44
2024/01/04 01:06:26;;;;;;;4.45;1.10;;;7.00;99.90;;;;;;5009286;28;20261;-44
2024/01/04 01:08:52;;;;;;;6.30;1.05;;;7.00;99.90;;;;;;5009388;28;20172;-42
2024/01/04 01:11:18;;;;;;;3.15;1.20;;;7.00;99.90;;;;;;5008489;28;20477;-46
2024/01/04 01:13:44;;;;;;;4.78;1.27;;;7.00;99.90;;;;;;4991443;28;20216;-49
2024/01/04 01:16:10;;;;;;;3.80;1.02;;;7.00;99.90;;;;;;5009510;28;20653;-45
2024/01/04 01:18:38;;;;;;;4.25;1.20;;;6.90;99.90;;;;;;4991781;28;20185;-45
2024/01/04 01:21:04;;;;;;;3.95;0.90;;;7.00;99.90;;;;;;5008773;28;20192;-43
2024/01/04 01:23:31;;;;;;;2.92;0.90;;;7.00;99.90;;;;;;5009349;28;20295;-45
2024/01/04 01:25:57;;;;;;;2.70;1.02;;;7.00;99.90;;;;;;5008803;28;20273;-41
2024/01/04 01:28:23;;;;;;;5.80;1.20;;;7.00;99.90;;;;;;5009071;28;20362;-42
2024/01/04 01:30:49;;;;;;;2.97;1.17;;;6.90;99.90;;;;;;5007838;28;20188;-44
2024/01/04 01:33:15;;;;;;;2.40;1.20;;;6.90;99.90;;;;;;5007935;28;20216;-47
2024/01/04 01:35:41;;;;;;;6.47;1.20;;;6.80;99.90;;;;;;5008786;28;20192;-46
2024/01/04 01:38:07;;;;;;;4.65;1.25;;;6.70;99.90;;;;;;5009181;28;20180;-49
2024/01/04 01:40:33;;;;;;;3.42;1.30;;;6.60;99.90;;;;;;4991074;28;20284;-42
2024/01/04 01:42:59;;;;;;;8.00;1.23;;;6.70;99.90;;;;;;5008985;28;20359;-46
2024/01/04 01:45:25;;;;;;;5.53;1.17;;;6.60;99.90;;;;;;4991542;28;20702;-41
2024/01/04 01:47:51;;;;;;;5.88;1.30;;;6.60;99.90;;;;;;5008983;28;20192;-48
2024/01/04 01:50:20;;;;;;;3.55;1.45;;;6.60;99.90;;;;;;4991322;28;20231;-42
2024/01/04 01:52:48;;;;;;;4.85;1.40;;;6.50;99.90;;;;;;4989866;28;20295;-43
2024/01/04 01:55:16;;;;;;;5.68;1.48;;;6.50;99.90;;;;;;4975044;28;20275;-47
2024/01/04 01:57:43;;;;;;;3.63;1.50;;;6.50;99.90;;;;;;4993459;28;20671;-54
2024/01/04 02:00:11;;;;;;;5.53;1.30;;;6.40;99.90;;;;;;4976696;28;20251;-44
2024/01/04 02:02:47;;;;;;;4.93;1.15;;;6.40;99.90;;;;;;4994525;28;20220;-42
2024/01/04 02:05:14;;;;;;;5.45;1.20;;;6.30;99.90;;;;;;4978568;28;20204;-46
2024/01/04 02:07:40;;;;;;;2.72;1.00;;;6.30;99.90;;;;;;5012395;28;20246;-46
2024/01/04 02:10:07;;;;;;;4.70;0.90;;;6.30;99.90;;;;;;4993376;28;20180;-46
2024/01/04 02:12:33;;;;;;;3.45;1.08;;;6.20;99.90;;;;;;4978539;28;20624;-43
2024/01/04 02:14:59;;;;;;;3.88;0.90;;;6.20;99.90;;;;;;4994469;28;20192;-53
2024/01/04 02:17:25;;;;;;;5.07;1.05;;;6.10;99.90;;;;;;5012880;28;20187;-51
2024/01/04 02:19:52;;;;;;;5.28;1.02;;;6.10;99.90;;;;;;4993753;28;20191;-41
2024/01/04 02:22:18;;;;;;;4.60;1.10;;;6.10;99.90;;;;;;4994328;28;20219;-45
2024/01/04 02:24:44;;;;;;;4.25;1.08;;;6.10;99.90;;;;;;5010850;28;20189;-42
2024/01/04 02:27:12;;;;;;;3.65;1.10;;;6.00;99.90;;;;;;4994683;28;20197;-46
2024/01/04 02:29:38;;;;;;;4.43;1.10;;;6.00;99.90;;;;;;5011173;28;20621;-48
2024/01/04 02:32:05;;;;;;;1.65;0.90;;;6.00;99.90;;;;;;5011632;28;20279;-43
2024/01/04 02:34:31;;;;;;;4.60;1.00;;;6.00;99.90;;;;;;4977745;28;20251;-42
2024/01/04 02:36:57;;;;;;;4.47;0.80;;;6.00;99.90;;;;;;4994460;28;20201;-46
2024/01/04 02:39:23;;;;;;;7.00;1.23;;;6.00;99.90;;;;;;4993923;28;20185;-46
2024/01/04 02:41:49;;;;;;;1.98;0.90;;;6.00;99.90;;;;;;4994829;28;20529;-46
2024/01/04 02:44:15;;;;;;;4.20;1.15;;;5.90;99.90;;;;;;5011326;28;20215;-48
2024/01/04 02:46:41;;;;;;;2.97;1.17;;;5.90;99.90;;;;;;4994030;28;20212;-40
2024/01/04 02:49:08;;;;;;;2.50;0.98;;;5.90;99.90;;;;;;5010537;28;20228;-48
2024/01/04 02:51:34;;;;;;;4.05;1.00;;;5.80;99.90;;;;;;4994453;28;20187;-43
2024/01/04 02:54:00;;;;;;;3.13;1.05;;;5.80;99.90;;;;;;5011925;28;20216;-45
2024/01/04 02:56:26;;;;;;;3.85;0.98;;;5.90;99.90;;;;;;5011488;28;20271;-50
2024/01/04 02:58:52;;;;;;;2.58;1.00;;;5.90;99.90;;;;;;5011582;28;20192;-44
2024/01/04 03:01:21;;;;;;;3.70;1.10;;;5.80;99.90;;;;;;4989309;28;20213;-45
2024/01/04 03:03:51;;;;;;;2.65;1.00;;;5.80;99.90;;;;;;4991717;28;20189;-49
2024/01/04 03:06:27;;;;;;;1.90;0.90;;;5.80;99.90;;;;;;4992123;28;20216;-43
2024/01/04 03:08:53;;;;;;;4.35;1.00;;;5.80;99.90;;;;;;4989049;28;20264;-48
2024/01/04 03:11:20;;;;;;;3.10;1.20;;;5.80;99.90;;;;;;4991789;28;20189;-45
2024/01/04 03:13:49;;;;;;;6.38;1.10;;;5.80;99.90;;;;;;4991387;28;20237;-45
2024/01/04 03:16:16;;;;;;;2.58;0.85;;;5.80;99.90;;;;;;4991988;28;20233;-45
2024/01/04 03:18:42;;;;;;;5.28;1.20;;;5.80;99.90;;;;;;4990945;28;20320;-44
2024/01/04 03:21:08;;;;;;;3.08;1.20;;;5.80;99.90;;;;;;4990785;28;20289;-51
2024/01/04 03:23:34;;;;;;;2.58;0.90;;;5.70;99.90;;;;;;4990498;28;20201;-49
2024/01/04 03:26:00;;;;;;;3.30;1.13;;;5.70;99.90;;;;;;4991801;28;20581;-44
2024/01/04 03:28:26;;;;;;;6.50;1.10;;;5.70;99.90;;;;;;4991485;28;20188;-44
2024/01/04 03:30:52;;;;;;;2.80;1.13;;;5.70;99.90;;;;;;4991478;28;20227;-47
2024/01/04 03:33:18;;;;;;;4.55;1.15;;;5.70;99.90;;;;;;4991528;28;20197;-41
2024/01/04 03:35:44;;;;;;;5.55;1.55;;;5.70;99.90;;;;;;4991153;28;20243;-45
2024/01/04 03:38:10;;;;;;;4.45;1.20;;;5.60;99.90;;;;;;4991215;28;20193;-47
2024/01/04 03:40:36;;;;;;;1.88;0.98;;;5.60;99.90;;;;;;4991556;28;20221;-45
2024/01/04 03:43:03;;;;;;;1.95;1.10;;;5.60;99.90;;;;;;4990134;28;20185;-52
2024/01/04 03:45:33;;;;;;;2.13;1.08;;;5.60;99.90;;;;;;4990004;28;20201;-44
2024/01/04 03:48:00;;;;;;;4.13;0.98;;;5.60;99.90;;;;;;4990361;28;20198;-41
2024/01/04 03:50:26;;;;;;;2.10;0.90;;;5.60;99.90;;;;;;4990951;28;20193;-42
2024/01/04 03:52:52;;;;;;;3.03;0.93;;;5.60;99.90;;;;;;4989880;28;20231;-45
2024/01/04 03:55:18;;;;;;;5.25;1.10;;;5.70;99.90;;;;;;4991335;28;20197;-46
2024/01/04 03:57:44;;;;;;;3.67;1.05;;;5.70;99.90;;;;;;4990197;28;20209;-49
2024/01/04 04:00:11;;;;;;;3.47;1.00;;;5.70;99.90;;;;;;4990310;28;20580;-44
2024/01/04 04:02:37;;;;;;;3.85;1.00;;;5.70;99.90;;;;;;5005132;28;20255;-47
2024/01/04 04:05:03;;;;;;;2.88;1.08;;;5.70;99.90;;;;;;4993048;28;20188;-43
2024/01/04 04:07:29;;;;;;;2.67;1.15;;;5.70;99.90;;;;;;5009491;28;20712;-43
2024/01/04 04:09:56;;;;;;;3.97;1.35;;;5.80;99.90;;;;;;4992822;28;20272;-51
2024/01/04 04:12:22;;;;;;;3.92;1.17;;;5.70;99.90;;;;;;4960923;28;20227;-42
2024/01/04 04:14:49;;;;;;;3.05;1.30;;;5.80;99.90;;;;;;5010005;28;20216;-46
2024/01/04 04:17:18;;;;;;;3.10;1.25;;;5.80;99.90;;;;;;4992689;28;20244;-45
2024/01/04 04:19:44;;;;;;;6.63;1.10;;;5.80;99.90;;;;;;5008399;28;20212;-45
2024/01/04 04:22:10;;;;;;;2.45;1.08;;;5.70;99.90;;;;;;5010117;28;20632;-43
2024/01/04 04:24:36;;;;;;;2.75;1.08;;;5.70;99.90;;;;;;5010245;28;20276;-46
2024/01/04 04:27:02;;;;;;;6.47;1.10;;;5.70;99.90;;;;;;4992166;28;20203;-47
2024/01/04 04:29:27;;;;;;;3.00;1.30;;;5.60;99.90;;;;;;4992159;28;20200;-42
2024/01/04 04:31:55;;;;;;;2.65;1.20;;;5.60;99.90;;;;;;5009897;28;20200;-44
2024/01/04 04:34:21;;;;;;;3.15;1.10;;;5.60;99.90;;;;;;5009602;28;20335;-47
2024/01/04 04:36:48;;;;;;;3.38;1.23;;;5.60;99.90;;;;;;5010174;28;20211;-53
2024/01/04 04:39:14;;;;;;;1.52;0.90;;;5.60;99.90;;;;;;4975293;28;20197;-42
2024/01/04 04:41:41;;;;;;;2.28;0.80;;;5.60;99.90;;;;;;5010075;28;20189;-40
2024/01/04 04:44:07;;;;;;;5.63;1.30;;;5.60;99.90;;;;;;4976108;28;20246;-43
2024/01/04 04:46:33;;;;;;;3.80;1.30;;;5.50;99.90;;;;;;4991196;28;20181;-48
2024/01/04 04:48:59;;;;;;;2.30;1.10;;;5.60;99.90;;;;;;4992261;28;20198;-38
2024/01/04 04:51:25;;;;;;;2.53;1.00;;;5.60;99.90;;;;;;4991896;28;20679;-44
2024/01/04 04:53:51;;;;;;;5.03;1.20;;;5.60;99.90;;;;;;5009346;28;20212;-48
2024/01/04 04:56:18;;;;;;;5.57;1.30;;;5.60;99.90;;;;;;5009810;28;20258;-42
2024/01/04 04:58:44;;;;;;;4.22;1.20;;;5.70;99.90;;;;;;4991167;28;20185;-45
2024/01/04 05:01:09;;;;;;;2.88;1.10;;;5.70;99.90;;;;;;5009460;28;20560;-44
2024/01/04 05:03:36;;;;;;;4.35;1.10;;;5.70;99.90;;;;;;4988257;28;20217;-43
2024/01/04 05:06:02;;;;;;;3.88;1.10;;;5.60;99.90;;;;;;4990141;28;20194;-47
2024/01/04 05:08:29;;;;;;;3.67;1.15;;;5.70;99.90;;;;;;4987741;28;20247;-43
2024/01/04 05:10:55;;;;;;;2.88;1.00;;;5.70;99.90;;;;;;4988809;28;20193;-43
2024/01/04 05:13:20;;;;;;;7.28;1.30;;;5.70;99.90;;;;;;4989914;28;20213;-47
2024/01/04 05:15:47;;;;;;;3.70;1.13;;;5.70;99.90;;;;;;4988672;28;20200;-48
2024/01/04 05:18:13;;;;;;;3.38;1.17;;;5.70;99.90;;;;;;4989036;28;20255;-43
2024/01/04 05:20:40;;;;;;;2.95;0.90;;;5.60;99.90;;;;;;4989833;28;20701;-47
2024/01/04 05:23:07;;;;;;;6.93;1.25;;;5.60;99.90;;;;;;4989679;28;20219;-45
2024/01/04 05:25:33;;;;;;;5.25;1.08;;;5.60;99.90;;;;;;4989991;28;20193;-43
2024/01/04 05:27:59;;;;;;;3.03;0.80;;;5.60;99.90;;;;;;4987939;28;20259;-43
2024/01/04 05:30:25;;;;;;;4.20;1.15;;;5.50;99.90;;;;;;4988694;28;20193;-43
2024/01/04 05:32:51;;;;;;;4.70;1.10;;;5.50;99.90;;;;;;4993679;28;20217;-47
2024/01/04 05:35:17;;;;;;;6.25;1.10;;;5.50;99.90;;;;;;4990930;28;20192;-46
2024/01/04 05:37:43;;;;;;;5.05;1.15;;;5.50;99.90;;;;;;5004996;28;20204;-50
2024/01/04 05:40:09;;;;;;;3.17;1.00;;;5.40;99.90;;;;;;5005160;28;20189;-46
2024/01/04 05:42:35;;;;;;;2.45;1.00;;;5.40;99.90;;;;;;4991827;28;20182;-42
2024/01/04 05:45:04;;;;;;;4.10;1.13;;;5.30;99.90;;;;;;4993318;28;20196;-48
2024/01/04 05:47:29;;;;;;;3.05;1.00;;;5.30;99.90;;;;;;4993073;28;20236;-47
2024/01/04 05:49:55;;;;;;;3.92;1.25;;;5.40;99.90;;;;;;4993565;28;20217;-47
2024/01/04 05:52:21;;;;;;;3.13;1.25;;;5.40;99.90;;;;;;4991249;28;20269;-45
2024/01/04 05:54:47;;;;;;;3.83;1.10;;;5.30;99.90;;;;;;4991633;28;20808;-50
2024/01/04 05:57:13;;;;;;;5.63;1.08;;;5.30;99.90;;;;;;4992858;28;20276;-46
2024/01/04 05:59:39;;;;;;;3.13;1.30;;;5.30;99.90;;;;;;4993501;28;20178;-48
2024/01/04 06:02:05;;;;;;;3.45;1.10;;;5.20;99.90;;;;;;4991891;28;20193;-46
2024/01/04 06:04:31;;;;;;;3.83;1.10;;;5.20;99.90;;;;;;4991958;28;20225;-47
2024/01/04 06:06:57;;;;;;;4.18;1.10;;;5.20;99.90;;;;;;4990702;28;20201;-45
2024/01/04 06:09:23;;;;;;;6.20;1.10;;;5.10;99.90;;;;;;4991527;28;20185;-48
2024/01/04 06:11:50;;;;;;;2.13;1.20;;;5.10;99.90;;;;;;4991953;28;20193;-39
2024/01/04 06:14:17;;;;;;;3.30;1.23;;;5.10;99.90;;;;;;4992923;28;20288;-44
2024/01/04 06:16:43;;;;;;;4.43;1.15;;;5.00;99.90;;;;;;4992671;28;20201;-43
2024/01/04 06:19:09;;;;;;;3.55;1.20;;;5.00;99.90;;;;;;4993064;28;20234;-42
2024/01/04 06:21:36;;;;;;;4.07;1.10;;;4.90;99.90;;;;;;4993062;28;20619;-55
2024/01/04 06:24:03;;;;;;;3.97;1.30;;;4.90;99.90;;;;;;4991812;28;20193;-42
2024/01/04 06:26:29;;;;;;;6.85;1.25;;;4.90;99.90;;;;;;4991507;28;20653;-44
2024/01/04 06:28:54;;;;;;;3.00;1.10;;;4.80;99.90;;;;;;4989127;28;20197;-49
2024/01/04 06:31:20;;;;;;;5.05;1.40;;;4.80;99.90;;;;;;4987522;28;20284;-41
2024/01/04 06:33:46;;;;;;;5.45;1.02;;;4.70;99.90;;;;;;4991016;28;20340;-45
2024/01/04 06:36:12;;;;;;;3.10;1.15;;;4.70;99.90;;;;;;4992460;28;20189;-42
2024/01/04 06:38:38;;;;;;;2.67;0.98;;;4.70;99.90;;;;;;4990276;28;20189;-42
2024/01/04 06:41:04;;;;;;;3.50;1.23;;;4.70;99.90;;;;;;4992835;28;20222;-43
2024/01/04 06:43:30;;;;;;;2.78;1.10;;;4.70;99.90;;;;;;4991440;28;20276;-45
2024/01/04 06:45:59;;;;;;;2.83;1.20;;;4.70;99.90;;;;;;4992600;28;20193;-43
2024/01/04 06:48:27;;;;;;;4.35;1.10;;;4.70;99.90;;;;;;4990831;28;20197;-48
2024/01/04 06:50:53;;;;;;;1.95;1.00;;;4.70;99.90;;;;;;4991222;28;20196;-46
2024/01/04 06:53:18;;;;;;;4.70;1.15;;;4.70;99.90;;;;;;4991937;28;20209;-44
2024/01/04 06:55:44;;;;;;;5.53;1.60;;;4.60;99.90;;;;;;4992116;28;20189;-46
2024/01/04 06:58:10;;;;;;;4.07;1.20;;;4.60;99.90;;;;;;4991332;28;20264;-46
2024/01/04 07:00:36;;;;;;;4.25;1.73;;;4.60;99.90;;;;;;4989821;28;20629;-45
2024/01/04 07:03:03;;;;;;;3.88;1.25;;;4.50;99.90;;;;;;4995355;28;20248;-46
2024/01/04 07:05:30;;;;;;;2.67;1.20;;;4.50;99.90;;;;;;5011239;28;20279;-45
2024/01/04 07:07:56;;;;;;;4.88;1.30;;;4.50;99.90;;;;;;4993985;28;20543;-48
2024/01/04 07:10:22;;;;;;;5.60;1.15;;;4.50;99.90;;;;;;5009649;28;20548;-43
2024/01/04 07:12:48;;;;;;;4.13;1.35;;;4.50;99.90;;;;;;5006073;28;20201;-42
2024/01/04 07:15:14;;;;;;;5.93;1.40;;;4.50;99.90;;;;;;5011297;28;20184;-47
2024/01/04 07:17:40;;;;;;;5.68;1.20;;;4.40;99.90;;;;;;5010592;28;20184;-47
2024/01/04 07:20:07;;;;;;;4.80;1.30;;;4.40;99.90;;;;;;5010849;28;20180;-50
2024/01/04 07:22:33;;;;;;;3.40;1.10;;;4.40;99.90;;;;;;5010710;28;20335;-45
2024/01/04 07:25:00;;;;;;;3.58;1.13;;;4.40;99.90;;;;;;5010162;28;20203;-47
2024/01/04 07:27:29;;;;;;;4.20;1.42;;;4.40;99.90;;;;;;4993480;28;20196;-50
2024/01/04 07:29:56;;;;;;;3.03;1.30;;;4.40;99.90;;;;;;5009895;28;20603;-43
2024/01/04 07:32:22;;;;;;;5.13;1.48;;;4.40;99.90;;;;;;5005412;28;20956;-47
2024/01/04 07:34:48;;;;;;;3.38;1.30;;;4.40;99.90;;;;;;5008800;28;20212;-48
2024/01/04 07:37:14;;;;;;;4.60;1.15;;;4.40;99.90;;;;;;5009916;28;20188;-49
2024/01/04 07:39:41;;;;;;;4.20;1.40;;;4.40;99.90;;;;;;5010249;28;20199;-50
2024/01/04 07:42:08;;;;;;;6.38;1.60;;;4.40;99.90;;;;;;5010570;28;20192;-44
2024/01/04 07:44:34;;;;;;;4.72;1.33;;;4.40;99.90;;;;;;5008095;22;20200;-47
2024/01/04 07:47:00;;;;;;;8.77;1.67;;;4.40;99.90;;;;;;5025746;28;20200;-46
2024/01/04 07:49:26;;;;;;;3.65;1.50;;;4.40;99.90;;;;;;5006215;28;20192;-47
2024/01/04 07:51:52;;;;;;;4.85;1.67;;;4.40;99.90;;;;;;5030294;28;20623;-40
2024/01/04 07:54:19;;;;;;;4.60;1.48;;;4.40;99.90;;;;;;5023863;28;20243;-43
2024/01/04 07:56:45;;;;;;;7.25;1.48;;;4.50;99.90;;;;;;5022015;28;20242;-45
2024/01/04 07:59:11;;;;;;;6.63;1.65;;;4.40;99.90;;;;;;4983370;28;20560;-44
2024/01/04 08:01:37;;;;;;;3.78;1.40;;;4.40;99.90;;;;;;5029880;28;20183;-44
2024/01/04 08:04:04;;;;;;;4.90;1.50;;;4.40;99.90;;;;;;5030325;28;20326;-46
2024/01/04 08:06:30;;;;;;;4.55;1.63;;;4.40;99.90;;;;;;5025634;28;20195;-41
2024/01/04 08:08:56;;;;;;;7.65;1.40;;;4.40;99.90;;;;;;5030480;28;20188;-43
2024/01/04 08:11:23;;;;;;;4.00;1.60;;;4.50;99.90;;;;;;5030137;28;20662;-46
2024/01/04 08:13:51;;;;;;;5.35;1.50;;;4.40;99.90;;;;;;5030306;28;20326;-46
2024/01/04 08:16:18;;;;;;;4.88;1.67;;;4.40;99.90;;;;;;5006727;28;20253;-44
2024/01/04 08:18:44;;;;;;;6.13;1.75;;;4.50;99.90;;;;;;5030057;28;20778;-47
2024/01/04 08:21:10;;;;;;;6.78;1.65;;;4.50;99.90;;;;;;5029998;28;20576;-42
2024/01/04 08:23:40;;;;;;;5.57;1.70;;;4.50;99.90;;;;;;5029976;28;20192;-41
2024/01/04 08:26:06;;;;;;;3.55;1.23;;;4.60;99.90;;;;;;5037342;28;20254;-45
2024/01/04 08:28:32;;;;;;;9.30;1.48;;;4.60;99.90;;;;;;5029890;28;20628;-44
2024/01/04 08:30:58;;;;;;;3.45;1.55;;;4.60;99.90;;;;;;5029992;28;20199;-45
2024/01/04 08:33:24;;;;;;;5.82;1.45;;;4.70;99.90;;;;;;5029265;28;20231;-50
2024/01/04 08:35:50;;;;;;;4.97;1.58;;;4.80;99.90;;;;;;5030032;28;20616;-44
2024/01/04 08:38:16;;;;;;;4.13;1.75;;;4.80;99.90;;;;;;4997803;28;20553;-51
2024/01/04 08:40:42;;;;;;;6.88;1.92;;;4.80;99.90;;;;;;5043764;28;20624;-46
2024/01/04 08:43:08;;;;;;;7.07;1.70;;;4.90;99.90;;;;;;5029642;28;20190;-48
2024/01/04 08:45:34;;;;;;;2.65;1.35;;;4.90;99.90;;;;;;5020548;28;20260;-45
2024/01/04 08:48:00;;;;;;;4.68;1.50;;;5.00;99.90;;;;;;5030184;28;20200;-42
2024/01/04 08:50:26;;;;;;;6.63;1.60;;;5.00;99.90;;;;;;5029696;28;20220;-45
2024/01/04 08:52:52;;;;;;;3.97;1.40;;;5.10;99.90;;;;;;5029413;28;20199;-45
2024/01/04 08:55:20;;;;;;;5.55;1.50;;;5.20;99.90;;;;;;5029442;28;20176;-47
2024/01/04 08:57:46;;;;;;;2.50;1.17;;;5.30;99.90;;;;;;5029174;28;20200;-49
2024/01/04 09:00:14;;;;;;;4.00;1.60;;;5.30;99.90;;;;;;5029201;28;20195;-45
2024/01/04 09:02:41;;;;;;;4.97;1.50;;;5.40;99.90;;;;;;5009802;28;20188;-45
2024/01/04 09:05:07;;;;;;;9.82;1.58;;;5.50;99.90;;;;;;5009073;28;20271;-45
2024/01/04 09:07:33;;;;;;;3.92;1.20;;;5.50;99.90;;;;;;5028967;28;20603;-43
2024/01/04 09:09:59;;;;;;;3.95;1.50;;;5.60;99.90;;;;;;5029564;28;20279;-49
2024/01/04 09:12:27;;;;;;;3.17;1.30;;;5.70;99.90;;;;;;5028840;28;20184;-48
2024/01/04 09:14:53;;;;;;;4.28;1.40;;;5.70;99.90;;;;;;5039711;28;20223;-42
2024/01/04 09:17:19;;;;;;;4.00;1.27;;;5.70;99.90;;;;;;5029261;28;20214;-41
2024/01/04 09:19:46;;;;;;;2.97;1.10;;;5.70;99.90;;;;;;4994927;28;20198;-48
2024/01/04 09:22:12;;;;;;;3.00;1.10;;;5.70;99.90;;;;;;5029148;28;20199;-45
2024/01/04 09:24:38;;;;;;;6.93;1.20;;;5.70;99.90;;;;;;5029064;28;20199;-46
2024/01/04 09:27:05;;;;;;;5.68;1.42;;;5.60;99.90;;;;;;5026158;28;20263;-48
2024/01/04 09:29:31;;;;;;;3.90;1.40;;;5.60;99.90;;;;;;5022629;28;20195;-50
2024/01/04 09:31:57;;;;;;;2.65;1.10;;;5.60;99.90;;;;;;4981679;28;20575;-49
2024/01/04 09:34:24;;;;;;;3.83;1.50;;;5.50;99.90;;;;;;5025141;28;20294;-40
2024/01/04 09:36:50;;;;;;;3.70;1.10;;;5.40;99.90;;;;;;5025924;28;20276;-46
2024/01/04 09:39:19;;;;;;;6.53;1.15;;;5.40;99.90;;;;;;5029234;28;20184;-44
2024/01/04 09:41:50;;;;;;;4.05;1.50;;;5.30;99.90;;;;;;5029009;28;20245;-45
2024/01/04 09:44:16;;;;;;;4.50;1.33;;;5.30;99.90;;;;;;5028290;28;20179;-42
2024/01/04 09:46:43;;;;;;;4.05;1.35;;;5.30;99.90;;;;;;5028625;28;20578;-46
2024/01/04 09:49:11;;;;;;;3.10;1.30;;;5.20;99.90;;;;;;5028862;28;20611;-43
2024/01/04 09:51:40;;;;;;;3.95;1.17;;;5.20;99.90;;;;;;5028975;28;20238;-42
2024/01/04 09:54:08;;;;;;;3.13;1.30;;;5.20;99.90;;;;;;5028336;28;20219;-52
2024/01/04 09:56:42;;;;;;;5.15;1.17;;;5.20;99.90;;;;;;5027263;28;20199;-40
2024/01/04 09:59:11;;;;;;;4.85;1.20;;;5.10;99.90;;;;;;5028927;28;20195;-44
2024/01/04 10:01:38;;;;;;;4.40;1.20;;;5.10;99.90;;;;;;5028945;28;20223;-45
2024/01/04 10:04:16;;;;;;;3.50;1.20;;;5.20;99.90;;;;;;5028534;28;20200;-46
2024/01/04 10:06:43;;;;;;;6.05;1.60;;;5.30;99.90;;;;;;5028998;28;20195;-42
2024/01/04 10:09:35;;;;;;;5.13;1.55;;;5.30;99.90;;;;;;5028780;28;20210;-48
2024/01/04 10:12:11;;;;;;;8.30;4.65;;;5.30;99.90;;;;;;5028508;28;20194;-39
2024/01/04 10:14:37;;;;;;;3.25;1.52;;;5.40;99.90;;;;;;5029222;28;20203;-48
2024/01/04 10:17:04;;;;;;;4.15;1.10;;;5.40;99.90;;;;;;5028693;28;20537;-45
2024/01/04 10:19:32;;;;;;;3.15;1.33;;;5.40;99.90;;;;;;5027644;28;20195;-40
2024/01/04 10:22:06;;;;;;;4.18;1.33;;;5.40;99.90;;;;;;5043633;28;20203;-44
2024/01/04 10:24:37;;;;;;;1.55;1.10;;;5.50;99.90;;;;;;5032648;28;20667;-48
2024/01/04 10:27:04;;;;;;;3.70;1.45;;;5.50;99.90;;;;;;5032138;28;20278;-49
2024/01/04 10:29:31;;;;;;;4.18;1.30;;;5.50;99.90;;;;;;5030700;28;20191;-47
2024/01/04 10:32:05;;;;;;;5.35;1.50;;;5.60;99.90;;;;;;5031716;28;20190;-44
2024/01/04 10:34:33;;;;;;;4.95;1.67;;;5.60;99.90;;;;;;5032120;28;20207;-43
2024/01/04 10:37:17;;;;;;;4.13;1.48;;;5.60;99.90;;;;;;5030590;28;20203;-43
2024/01/04 10:39:55;;;;;;;4.10;1.40;;;5.60;99.90;;;;;;5032013;28;20183;-45
2024/01/04 10:42:22;;;;;;;5.18;1.50;;;5.70;99.90;;;;;;5031729;28;20674;-44
2024/01/04 10:44:52;;;;;;;7.13;1.40;;;5.70;99.90;;;;;;5010060;28;20203;-51
2024/01/04 10:47:18;;;;;;;4.40;1.25;;;5.70;99.90;;;;;;5031959;28;20326;-46
2024/01/04 10:49:47;;;;;;;3.60;1.58;;;5.70;99.90;;;;;;5031881;28;20683;-42
2024/01/04 10:52:21;;;;;;;3.20;1.65;;;5.70;99.90;;;;;;5031345;28;20188;-43
2024/01/04 10:54:51;;;;;;;9.98;1.58;;;5.60;99.90;;;;;;5030677;28;20230;-46
2024/01/04 10:57:18;;;;;;;2.65;1.45;;;5.60;99.90;;;;;;5025789;28;20187;-50
2024/01/04 10:59:46;;;;;;;6.53;1.95;;;5.70;99.90;;;;;;5029792;28;20248;-46
2024/01/04 11:02:15;;;;;;;8.32;1.50;;;5.70;99.90;;;;;;5029285;28;20187;-40
2024/01/04 11:04:42;;;;;;;9.13;2.83;;;5.70;99.90;;;;;;5031435;28;20252;-44
2024/01/04 11:07:08;;;;;;;7.28;3.00;;;5.80;99.90;;;;;;5030789;28;20176;-48
2024/01/04 11:09:35;;;;;;;6.60;1.77;;;5.80;99.90;;;;;;5031489;28;20180;-43
2024/01/04 11:12:03;;;;;;;4.13;1.58;;;5.80;99.90;;;;;;5031024;28;20278;-48
2024/01/04 11:14:29;;;;;;;2.47;1.40;;;5.90;99.90;;;;;;5030787;28;20322;-44
2024/01/04 11:17:16;;;;;;;8.48;2.03;;;6.00;99.90;;;;;;5031444;28;20646;-42
2024/01/04 11:20:00;;;;;;;4.18;1.55;;;6.00;99.90;;;;;;5031382;28;20203;-41
2024/01/04 11:22:47;;;;;;;8.75;3.80;;;6.10;99.90;;;;;;5030889;28;20648;-44
2024/01/04 11:25:22;;;;;;;3.13;1.35;;;6.10;99.90;;;;;;5030954;28;20191;-39
2024/01/04 11:27:49;;;;;;;3.63;1.58;;;6.20;99.90;;;;;;5043871;28;20223;-44
2024/01/04 11:30:16;;;;;;;9.15;4.30;;;6.30;99.90;;;;;;5027251;28;20183;-49
2024/01/04 11:32:44;;;;;;;3.78;1.30;;;6.40;99.90;;;;;;5029831;28;20682;-45
2024/01/04 11:35:11;;;;;;;2.38;1.67;;;6.50;99.90;;;;;;5025259;28;20196;-43
2024/01/04 11:37:37;;;;;;;7.53;3.20;;;6.50;99.90;;;;;;5030891;28;20203;-47
2024/01/04 11:40:07;;;;;;;7.35;1.90;;;6.60;99.90;;;;;;5026462;28;20746;-45
2024/01/04 11:42:35;;;;;;;4.95;2.20;;;6.70;99.90;;;;;;5030584;28;20188;-51
2024/01/04 11:45:04;;;;;;;6.45;2.30;;;6.80;99.90;;;;;;5030402;28;20603;-43
2024/01/04 11:47:38;;;;;;;5.78;2.13;;;6.80;99.90;;;;;;5030644;28;20648;-43
2024/01/04 11:50:25;;;;;;;5.68;1.80;;;6.90;99.90;;;;;;5028991;28;20220;-43
2024/01/04 11:53:01;;;;;;;5.57;1.50;;;6.90;99.90;;;;;;5030248;28;20652;-47
2024/01/04 11:55:28;;;;;;;2.92;1.38;;;6.90;99.90;;;;;;5028420;28;20210;-49
2024/01/04 11:58:04;;;;;;;5.22;1.70;;;6.90;99.90;;;;;;5030517;28;20236;-42
2024/01/04 12:00:34;;;;;;;4.22;1.60;;;6.90;99.90;;;;;;5030044;28;20191;-47
2024/01/04 12:03:10;;;;;;;4.38;1.80;;;6.90;99.90;;;;;;5029257;28;20194;-48
2024/01/04 12:05:36;;;;;;;5.00;1.52;;;6.90;99.90;;;;;;5017151;28;20661;-46
2024/01/04 12:08:03;;;;;;;4.97;1.33;;;7.00;99.90;;;;;;5044849;28;20220;-46
2024/01/04 12:10:29;;;;;;;3.58;1.40;;;7.00;99.90;;;;;;5029633;28;20195;-48
2024/01/04 12:12:54;;;;;;;3.92;1.15;;;7.10;99.90;;;;;;4995805;28;20200;-46
2024/01/04 12:15:20;;;;;;;3.88;1.40;;;7.10;99.90;;;;;;5030012;28;20192;-45
2024/01/04 12:17:46;;;;;;;4.32;1.58;;;7.20;99.90;;;;;;5029042;28;20212;-44
2024/01/04 12:20:12;;;;;;;4.68;2.13;;;7.30;99.90;;;;;;5030196;28;20237;-44
2024/01/04 12:22:38;;;;;;;8.00;2.08;;;7.30;99.90;;;;;;5029656;28;20180;-49
2024/01/04 12:25:06;;;;;;;3.03;1.58;;;7.40;99.90;;;;;;5028784;28;20279;-48
2024/01/04 12:27:36;;;;;;;2.60;1.40;;;7.40;99.90;;;;;;5029754;28;20191;-48
2024/01/04 12:30:05;;;;;;;2.08;1.30;;;7.50;99.90;;;;;;5029778;28;20196;-45
2024/01/04 12:32:34;;;;;;;3.03;1.40;;;7.50;99.90;;;;;;5029703;28;20271;-47
2024/01/04 12:35:02;;;;;;;4.15;1.50;;;7.50;99.90;;;;;;5041546;28;20286;-48
2024/01/04 12:37:29;;;;;;;4.63;1.50;;;7.50;99.90;;;;;;5029717;28;20596;-43
2024/01/04 12:40:10;;;;;;;5.68;1.30;;;7.50;99.90;;;;;;5029267;28;20261;-45
2024/01/04 12:42:36;;;;;;;4.47;1.95;;;7.60;99.90;;;;;;5029332;28;20187;-44
2024/01/04 12:45:03;;;;;;;4.13;1.52;;;7.50;99.90;;;;;;5029318;28;20223;-48
2024/01/04 12:47:31;;;;;;;4.57;1.67;;;7.60;99.90;;;;;;5029320;28;20195;-43
2024/01/04 12:49:57;;;;;;;3.15;1.50;;;7.50;99.90;;;;;;5029032;28;20274;-46
2024/01/04 12:52:24;;;;;;;6.28;1.80;;;7.50;99.90;;;;;;5043034;28;20180;-44
2024/01/04 12:54:49;;;;;;;7.50;2.10;;;7.40;99.90;;;;;;5029092;28;20251;-42
2024/01/04 12:57:15;;;;;;;4.13;2.33;;;7.40;99.90;;;;;;5029439;28;20211;-47